ADDS METAR Data INFO
IDs: Format: Raw Decoded Include TAF

Data at: 2252 UTC 22 Jun 2018

KOOA 222235Z AUTO 00000KT 10SM OVC027 20/17 A2980 RMK AO2 T02010171
KOOA 222215Z AUTO 36003KT 10SM OVC027 20/17 A2980 RMK AO2 T02010169
KOOA 222155Z AUTO 02004KT 10SM -DZ BKN023 OVC029 20/17 A2980 RMK AO2 T02000170
KOOA 222135Z AUTO 36005KT 10SM BKN023 OVC030 21/17 A2980 RMK AO2 T02050165
KOOA 222115Z AUTO 36006KT 10SM OVC030 21/17 A2980 RMK AO2 T02070169
KOOA 222055Z AUTO 02008KT 10SM OVC028 21/17 A2980 RMK AO2 T02050166
KOOA 222035Z AUTO 03006KT 10SM OVC024 20/17 A2981 RMK AO2 T02010165
KOOA 222015Z AUTO 03008KT 10SM OVC024 20/16 A2981 RMK AO2 T02020161
KOOA 221955Z AUTO 02008KT 10SM OVC024 21/16 A2981 RMK AO2 T02050163
KOOA 221935Z AUTO 01011KT 10SM BKN024 BKN029 OVC070 21/16 A2981 RMK AO2 T02130161
KOOA 221915Z AUTO 02012G17KT 10SM BKN027 BKN039 OVC070 22/16 A2981 RMK AO2 T02160162
KOOA 221855Z AUTO 03010G17KT 10SM OVC027 21/16 A2981 RMK AO2 T02060156
KOOA 221835Z AUTO 03011KT 10SM OVC029 21/16 A2981 RMK AO2 T02120155
KOOA 221815Z AUTO 03013G16KT 10SM OVC029 20/15 A2982 RMK AO2 T02020150
KOOA 221755Z AUTO 06013G18KT 10SM OVC029 20/15 A2982 RMK AO2 T02030148 10205 20165
KOOA 221735Z AUTO 04010KT 10SM OVC027 20/16 A2982 RMK AO2 T02010160
KOOA 221715Z AUTO 05011G15KT 10SM OVC025 21/17 A2982 RMK AO2 T02050165
KOOA 221655Z AUTO 06007KT 10SM OVC027 20/16 A2983 RMK AO2 T01980162
KOOA 221635Z AUTO 06009KT 10SM BKN024 OVC029 20/16 A2983 RMK AO2 T02000158
KOOA 221615Z AUTO 05010G14KT 10SM BKN021 OVC027 20/16 A2982 RMK AO2 T02000162
KOOA 221555Z AUTO 05009KT 10SM BKN019 OVC025 20/16 A2982 RMK AO2 T01950162
KOOA 221535Z AUTO 04007KT 10SM OVC019 19/16 A2982 RMK AO2 T01860161
KOOA 221515Z AUTO 03009KT 10SM OVC019 18/16 A2982 RMK AO2 T01830160
KOOA 221455Z AUTO 03009KT 10SM SCT014 OVC021 18/16 A2982 RMK AO2 T01800161
KOOA 221435Z AUTO 02008KT 10SM BKN012 OVC021 18/16 A2982 RMK AO2 T01780161
KOOA 221415Z AUTO 03009KT 10SM OVC012 18/16 A2982 RMK AO2 T01750160
KOOA 221355Z AUTO 02009G15KT 10SM OVC012 18/16 A2982 RMK AO2 T01750161
KOOA 221335Z AUTO 03010KT 10SM OVC012 17/16 A2981 RMK AO2 T01710160
KOOA 221315Z AUTO 02010G14KT 10SM OVC012 17/16 A2981 RMK AO2 T01710161
KOOA 221255Z AUTO 02008KT 10SM BKN009 OVC013 17/16 A2981 RMK AO2 T01700161
KOOA 221235Z AUTO 03008KT 10SM BKN009 OVC013 17/16 A2981 RMK AO2 T01670160
KOOA 221215Z AUTO 02009KT 10SM BKN009 OVC013 17/16 A2981 RMK AO2 T01660160
KOOA 221155Z AUTO 03007KT 7SM BKN009 OVC013 17/16 A2981 RMK AO2 70015 T01650160 10165 20160
KOOA 221135Z AUTO 04009KT 5SM BR OVC009 17/16 A2981 RMK AO2 T01650158
KOOA 221115Z AUTO 04010KT 10SM OVC009 17/16 A2981 RMK AO2 T01650158
KOOA 221055Z AUTO 05010G14KT 10SM BKN007 OVC013 16/16 A2981 RMK AO2 T01630158
KOOA 221035Z AUTO 04010G15KT 7SM OVC007 17/16 A2980 RMK AO2 T01650160
KOOA 221015Z AUTO 04007KT 7SM OVC007 16/16 A2980 RMK AO2 T01640160
KOOA 220955Z AUTO 02008KT 7SM OVC007 16/16 A2979 RMK AO2 T01620159
KOOA 220935Z AUTO 03008KT 3SM BR OVC005 16/16 A2979 RMK AO2 T01610159
KOOA 220855Z AUTO 01008KT 3SM BR OVC005 16/16 A2979 RMK AO2 T01610157
KOOA 220835Z AUTO 03009KT 2 1/2SM BR OVC005 16/16 A2978 RMK AO2 T01610157
KOOA 220815Z AUTO 02007KT 2SM BR OVC007 16/16 A2978 RMK AO2 T01620158
KOOA 220755Z AUTO 02008KT 3SM BR OVC007 16/16 A2978 RMK AO2 T01620158
KOOA 220735Z AUTO 03009KT 2 1/2SM BR OVC005 16/16 A2979 RMK AO2 T01630158
KOOA 220715Z AUTO 03012KT 4SM BR OVC005 17/16 A2978 RMK AO2 T01650158
KOOA 220655Z AUTO 03010KT 5SM BR OVC005 17/16 A2979 RMK AO2 T01650160
KOOA 220635Z AUTO 03011KT 7SM OVC005 17/16 A2979 RMK AO2 T01650160
KOOA 220615Z AUTO 02011KT 7SM OVC005 17/16 A2979 RMK AO2 T01650160
KOOA 220555Z AUTO 02009KT 7SM OVC005 17/16 A2979 RMK AO2 60008 T01650160 10205 20165 402350165
KOOA 220535Z AUTO 03010KT 7SM OVC005 17/16 A2979 RMK AO2 T01650161
KOOA 220515Z AUTO 03008KT 4SM BR OVC005 17/16 A2979 RMK AO2 T01650161
KOOA 220455Z AUTO 03012KT 4SM BR OVC005 17/16 A2980 RMK AO2 T01670162
KOOA 220435Z AUTO 03007KT 7SM OVC005 17/17 A2980 RMK AO2 T01680165
KOOA 220415Z AUTO 03009KT 5SM BR OVC005 17/17 A2980 RMK AO2 T01700165
KOOA 220355Z AUTO 02009KT 4SM BR OVC005 17/17 A2980 RMK AO2 T01720168
KOOA 220335Z AUTO 03009KT 2 1/2SM BR OVC005 18/17 A2980 RMK AO2 T01760171
KOOA 220315Z AUTO 02009KT 5SM BR OVC005 18/17 A2979 RMK AO2 T01770171
KOOA 220255Z AUTO 02010KT 7SM OVC007 18/17 A2978 RMK AO2 60008 T01790172
KOOA 220235Z AUTO 02010KT 10SM SCT004 OVC007 19/18 A2977 RMK AO2 T01870178
KOOA 220215Z AUTO 05010KT 10SM OVC007 19/18 A2976 RMK AO2 T01880180
KOOA 220155Z AUTO 03010KT 10SM OVC007 19/18 A2975 RMK AO2 T01870181
KOOA 220135Z AUTO 04010KT 10SM OVC005 19/18 A2975 RMK AO2 T01900182
KOOA 220115Z AUTO 05010KT 10SM BKN007 OVC012 19/18 A2974 RMK AO2 T01900182
KOOA 220055Z AUTO 04009KT 10SM BKN009 BKN017 OVC060 20/19 A2973 RMK AO2 P0008 T01950186
KOOA 220035Z AUTO 04012G16KT 10SM SCT009 BKN027 OVC065 20/19 A2973 RMK AO2 P0008 T02000191
KOOA 220015Z AUTO 03007KT 7SM SCT013 BKN025 OVC065 20/19 A2972 RMK AO2 P0008 T01980190
KOOA 212355Z AUTO 02005KT 10SM SCT021 SCT050 BKN070 20/19 A2972 RMK AO2 P0001 60007 T02020191 10235 20196
KOOA 212335Z AUTO 01003KT 10SM SCT018 BKN048 OVC065 20/19 A2972 RMK AO2 P0001 T02000189
KOOA 212315Z AUTO 04004KT 7SM RA SCT018 BKN027 OVC039 20/19 A2972 RMK AO2 T01990189
KOOA 212255Z AUTO 06004KT 7SM -RA SCT026 BKN039 BKN049 20/19 A2972 RMK AO2 P0006 T02010191
KOOA 212235Z AUTO 05004KT 4SM RA SCT021 BKN033 BKN042 20/19 A2972 RMK AO2 P0003 T02030190
KOOA 212215Z AUTO 02006KT 7SM -RA SCT023 BKN034 OVC060 21/19 A2972 RMK AO2 P0001 T02060191
KOOA 212115Z AUTO 00000KT 10SM BKN026 BKN034 BKN080 22/17 A2972 RMK AO2 T02200170
KOOA 212055Z AUTO 00000KT 10SM SCT065 SCT075 23/17 A2972 RMK AO2 T02300171
KOOA 212035Z AUTO 18004KT 10SM OVC065 22/17 A2971 RMK AO2 T02200171
KOOA 212015Z AUTO 21004KT 10SM SCT023 BKN032 OVC065 22/17 A2972 RMK AO2 T02220172
KOOA 211955Z AUTO 21006KT 10SM BKN020 BKN028 OVC060 22/18 A2972 RMK AO2 T02220175
KOOA 211935Z AUTO 20006KT 10SM SCT021 OVC060 23/18 A2972 RMK AO2 T02270177
KOOA 211915Z AUTO 24006KT 10SM BKN060 OVC070 22/18 A2972 RMK AO2 T02210175
KOOA 211855Z AUTO 22007KT 10SM SCT026 OVC050 22/17 A2972 RMK AO2 T02190171
KOOA 211835Z AUTO 23009KT 10SM BKN026 BKN045 OVC050 21/17 A2972 RMK AO2 T02130172
KOOA 211815Z AUTO 23007KT 10SM BKN024 OVC029 22/18 A2971 RMK AO2 T02200175
KOOA 211755Z AUTO 23003KT 10SM BKN029 OVC043 23/17 A2971 RMK AO2 T02270165 10232 20175
KOOA 211735Z AUTO 00000KT 10SM SCT029 SCT035 SCT043 23/17 A2972 RMK AO2 T02280166
KOOA 211715Z AUTO 20005KT 10SM SCT023 SCT029 BKN036 23/17 A2971 RMK AO2 T02250165
KOOA 211655Z AUTO 18005KT 10SM SCT023 BKN033 BKN039 22/17 A2971 RMK AO2 T02230166
KOOA 211635Z AUTO 00000KT 10SM BKN030 OVC036 22/17 A2972 RMK AO2 T02160165
KOOA 211615Z AUTO 00000KT 10SM SCT020 SCT028 OVC034 21/17 A2972 RMK AO2 T02130166
KOOA 211555Z AUTO 13003KT 10SM SCT020 BKN029 BKN033 21/16 A2972 RMK AO2 T02110163
KOOA 211535Z AUTO 12003KT 10SM SCT025 SCT031 BKN085 21/16 A2972 RMK AO2 T02100163
KOOA 211515Z AUTO 17003KT 10SM SCT025 BKN085 20/16 A2972 RMK AO2 T02040163
KOOA 211455Z AUTO 00000KT 10SM SCT070 SCT085 20/16 A2972 RMK AO2 T02010160
KOOA 211435Z AUTO 16003KT 10SM SCT070 BKN085 20/16 A2973 RMK AO2 T01970161
KOOA 211355Z AUTO 20005KT 10SM SCT017 SCT070 BKN085 20/16 A2973 RMK AO2 T02030163
KOOA 211335Z AUTO 23006KT 10SM CLR 20/17 A2973 RMK AO2 T01980167
KOOA 211315Z AUTO 23006KT 10SM CLR 20/17 A2973 RMK AO2 T01960166
KOOA 211255Z AUTO 23008KT 10SM CLR 19/17 A2973 RMK AO2 T01920170
KOOA 211235Z AUTO 22007KT 10SM CLR 19/17 A2973 RMK AO2 T01860170
KOOA 211215Z AUTO 21004KT 10SM SCT025 18/17 A2974 RMK AO2 T01810167
KOOA 211155Z AUTO 23004KT 10SM BKN025 18/17 A2973 RMK AO2 70080 T01760166 10200 20176
KOOA 211135Z AUTO 00000KT 10SM OVC023 18/17 A2973 RMK AO2 T01800170
KOOA 211115Z AUTO 24004KT 10SM OVC021 18/17 A2973 RMK AO2 T01820172
KOOA 211055Z AUTO 24003KT 10SM OVC019 18/17 A2972 RMK AO2 T01820169